Time;durP1;ratioP1;P1;durP2;ratioP2;P2;SDS_P1;SDS_P2;PMS_P1;PMS_P2;Temp;Humidity;BMP_temperature;BMP_pressure;BME280_temperature;BME280_humidity;BME280_pressure;Samples;Min_cycle;Max_cycle;Signal;HPM_P1;HPM_P2
2024/01/05 00:04:49;;;;;;;2.00;1.20;;;-1.10;99.90;;;;;;10435662;28;20220;-78
2024/01/05 00:10:10;;;;;;;3.63;1.40;;;-1.20;99.90;;;;;;10436495;28;20319;-79
2024/01/05 00:15:32;;;;;;;3.50;1.60;;;-1.20;99.90;;;;;;10435879;28;20189;-78
2024/01/05 00:20:54;;;;;;;1.53;1.10;;;-1.40;99.90;;;;;;10433520;28;20205;-78
2024/01/05 00:26:15;;;;;;;1.87;1.37;;;-1.30;99.90;;;;;;10418080;28;20221;-78
2024/01/05 00:31:36;;;;;;;4.27;1.80;;;-1.30;1.00;;;;;;10431951;28;20200;-78
2024/01/05 00:36:58;;;;;;;4.70;1.97;;;-1.30;19.00;;;;;;10432359;28;20263;-78
2024/01/05 00:42:19;;;;;;;1.40;1.10;;;-1.30;99.90;;;;;;10415648;28;20190;-78
2024/01/05 00:47:40;;;;;;;3.00;1.70;;;-1.30;99.90;;;;;;10414742;28;20223;-78
2024/01/05 00:53:01;;;;;;;5.50;2.10;;;-1.20;99.90;;;;;;10404678;28;20312;-78
2024/01/05 00:58:22;;;;;;;3.53;1.80;;;-1.10;95.90;;;;;;10439229;28;20270;-78
2024/01/05 01:03:43;;;;;;;4.33;1.60;;;-1.10;34.40;;;;;;10428278;28;20204;-78
2024/01/05 01:09:05;;;;;;;4.43;1.70;;;-1.10;67.50;;;;;;10442938;28;20221;-78
2024/01/05 01:14:26;;;;;;;6.50;2.83;;;-1.20;3.90;;;;;;10427754;28;20196;-78
2024/01/05 01:19:47;;;;;;;3.03;1.60;;;-1.30;99.90;;;;;;10440727;28;20198;-78
2024/01/05 01:25:08;;;;;;;2.73;0.90;;;-1.20;99.90;;;;;;10482640;28;20464;-78
2024/01/05 01:30:30;;;;;;;2.50;1.10;;;-1.20;1.00;;;;;;10459771;28;20264;-78
2024/01/05 01:35:51;;;;;;;1.73;1.00;;;-1.20;99.90;;;;;;10440965;28;20276;-78
2024/01/05 01:41:12;;;;;;;2.80;1.80;;;-1.30;99.90;;;;;;10408454;28;20213;-78
2024/01/05 01:46:36;;;;;;;0.77;0.73;;;-1.40;55.40;;;;;;10399527;28;20229;-78
2024/01/05 01:51:57;;;;;;;1.20;0.80;;;-1.40;99.90;;;;;;10421988;28;20247;-78
2024/01/05 01:57:19;;;;;;;2.00;1.20;;;-1.40;99.90;;;;;;10481847;28;20551;-78
2024/01/05 02:02:41;;;;;;;4.50;1.80;;;-1.20;99.90;;;;;;10482552;28;20213;-78
2024/01/05 02:08:02;;;;;;;1.50;1.20;;;-1.20;99.90;;;;;;10441783;28;20253;-78
2024/01/05 02:13:23;;;;;;;3.07;1.50;;;-1.20;99.90;;;;;;10440361;28;20203;-78
2024/01/05 02:18:52;;;;;;;2.57;1.40;;;-1.10;99.90;;;;;;10439304;28;20579;-79
2024/01/05 02:24:13;;;;;;;3.40;1.73;;;-1.10;99.90;;;;;;10392110;28;20203;-78
2024/01/05 02:29:36;;;;;;;2.27;1.00;;;-1.10;99.90;;;;;;10426879;28;20247;-78
2024/01/05 02:34:57;;;;;;;1.43;1.17;;;-1.10;99.90;;;;;;10439516;28;20189;-78
2024/01/05 02:40:19;;;;;;;1.50;1.33;;;-1.00;99.90;;;;;;10424754;28;20189;-79
2024/01/05 02:45:40;;;;;;;3.33;1.10;;;-1.10;99.90;;;;;;10438499;28;20492;-78
2024/01/05 02:51:01;;;;;;;1.60;1.30;;;-1.10;99.90;;;;;;10420192;28;20264;-79
2024/01/05 02:56:23;;;;;;;1.63;1.27;;;-1.10;1.00;;;;;;10415760;28;20253;-80
2024/01/05 03:01:48;;;;;;;3.17;1.40;;;-1.10;99.90;;;;;;10430067;28;20194;-79
2024/01/05 03:07:09;;;;;;;3.47;2.07;;;-1.10;99.90;;;;;;10396210;28;20231;-79
2024/01/05 03:12:30;;;;;;;3.67;1.97;;;-1.10;99.90;;;;;;10396251;28;20228;-79
2024/01/05 03:17:52;;;;;;;2.67;1.60;;;-1.10;99.90;;;;;;10396416;28;20204;-79
2024/01/05 03:23:15;;;;;;;2.87;2.00;;;-1.10;1.00;;;;;;10413166;28;20538;-79
2024/01/05 03:28:38;;;;;;;3.23;1.97;;;-1.30;1.00;;;;;;10402858;28;20229;-78
2024/01/05 03:33:59;;;;;;;5.83;1.80;;;-1.30;1.00;;;;;;10422592;28;20204;-78
2024/01/05 03:39:20;;;;;;;3.23;1.97;;;-1.40;1.00;;;;;;10436767;28;20232;-79
2024/01/05 03:44:41;;;;;;;2.07;1.43;;;-1.30;1.00;;;;;;10436256;28;20186;-79
2024/01/05 03:50:03;;;;;;;2.13;1.47;;;-1.30;1.00;;;;;;10413875;28;20411;-78
2024/01/05 03:55:24;;;;;;;2.90;1.10;;;-1.40;99.90;;;;;;10432658;28;20225;-78
2024/01/05 04:00:45;;;;;;;4.03;1.43;;;-1.40;1.00;;;;;;10436643;28;20382;-78
2024/01/05 04:06:06;;;;;;;1.77;1.23;;;-1.40;1.00;;;;;;10435632;28;20191;-78
2024/01/05 04:11:30;;;;;;;2.70;1.60;;;-1.40;1.00;;;;;;10421612;28;20476;-79
2024/01/05 04:16:51;;;;;;;2.13;1.40;;;-1.30;1.00;;;;;;10421546;28;20268;-78
2024/01/05 04:22:12;;;;;;;3.20;1.63;;;-1.20;99.90;;;;;;10414933;28;20483;-79
2024/01/05 04:27:33;;;;;;;3.23;1.10;;;-1.20;1.00;;;;;;10425323;28;20279;-79
2024/01/05 04:32:54;;;;;;;1.67;1.20;;;-1.10;1.00;;;;;;10395225;28;20234;-78
2024/01/05 04:38:16;;;;;;;4.10;2.60;;;-1.10;1.00;;;;;;10402064;28;20202;-78
2024/01/05 04:43:37;;;;;;;4.60;3.10;;;-1.00;1.00;;;;;;10434882;28;20198;-79
2024/01/05 04:48:58;;;;;;;7.37;4.20;;;-0.90;1.00;;;;;;10431318;28;20268;-79
2024/01/05 04:54:19;;;;;;;5.67;3.47;;;-0.90;1.00;;;;;;10433742;28;20419;-79
2024/01/05 04:59:41;;;;;;;3.63;2.73;;;-0.90;1.00;;;;;;10420999;28;20213;-79
2024/01/05 05:05:02;;;;;;;4.30;2.07;;;-0.90;99.90;;;;;;10421912;28;20210;-79
2024/01/05 05:10:24;;;;;;;3.10;1.83;;;-0.90;1.00;;;;;;10403391;28;20272;-79
2024/01/05 05:15:45;;;;;;;2.70;1.97;;;-0.90;1.00;;;;;;10400548;28;20198;-79
2024/01/05 05:21:07;;;;;;;4.70;2.60;;;-0.90;1.00;;;;;;10404004;28;20232;-79
2024/01/05 05:26:28;;;;;;;5.90;2.30;;;-0.90;99.90;;;;;;10430158;28;20489;-79
2024/01/05 05:31:49;;;;;;;4.63;2.23;;;-0.90;1.00;;;;;;10441981;28;20198;-79
2024/01/05 05:37:10;;;;;;;4.60;1.90;;;-0.90;1.00;;;;;;10441196;28;20485;-79
2024/01/05 05:42:31;;;;;;;4.63;2.43;;;-0.80;99.90;;;;;;10440841;28;20191;-78
2024/01/05 05:47:53;;;;;;;5.43;2.63;;;-0.80;1.00;;;;;;10426238;28;20312;-79
2024/01/05 05:53:14;;;;;;;3.47;1.97;;;-0.80;1.00;;;;;;10413334;28;20309;-78
2024/01/05 05:58:35;;;;;;;4.47;2.00;;;-0.80;1.00;;;;;;10399326;28;20486;-80
2024/01/05 06:03:56;;;;;;;4.37;1.83;;;-0.90;99.90;;;;;;10398879;28;20199;-78
2024/01/05 06:09:18;;;;;;;4.73;1.80;;;-0.80;99.90;;;;;;10398921;28;20246;-79
2024/01/05 06:14:39;;;;;;;3.40;1.60;;;-0.80;99.90;;;;;;10398512;28;20198;-78
2024/01/05 06:20:00;;;;;;;5.17;2.50;;;-0.80;99.90;;;;;;10415157;28;20220;-79
2024/01/05 06:25:22;;;;;;;2.73;1.90;;;-0.80;99.90;;;;;;10370824;28;20204;-79
2024/01/05 06:30:43;;;;;;;3.33;2.07;;;-0.80;99.90;;;;;;10421702;28;20242;-79
2024/01/05 06:36:06;;;;;;;5.30;2.00;;;-0.80;99.90;;;;;;10432454;28;20208;-79
2024/01/05 06:41:27;;;;;;;5.97;3.40;;;-0.90;1.00;;;;;;10411514;28;20198;-79
2024/01/05 06:46:50;;;;;;;4.73;3.03;;;-1.00;99.90;;;;;;10398092;28;20237;-78
2024/01/05 06:52:11;;;;;;;6.43;3.63;;;-0.90;99.90;;;;;;10396216;28;20387;-79
2024/01/05 06:57:35;;;;;;;6.63;3.70;;;-0.90;99.90;;;;;;10437340;28;20225;-79
2024/01/05 07:02:56;;;;;;;5.13;3.33;;;-0.80;99.90;;;;;;10435417;28;20198;-78
2024/01/05 07:08:18;;;;;;;3.37;2.10;;;-0.90;99.90;;;;;;10396342;28;20225;-79
2024/01/05 07:13:41;;;;;;;3.00;2.40;;;-0.90;99.90;;;;;;10382158;28;20265;-79
2024/01/05 07:19:03;;;;;;;5.17;3.03;;;-1.00;99.90;;;;;;10382212;28;20385;-79
2024/01/05 07:24:24;;;;;;;5.50;2.63;;;-1.00;99.90;;;;;;10396118;28;20473;-79
2024/01/05 07:29:46;;;;;;;5.90;3.33;;;-1.00;99.90;;;;;;10412136;28;20546;-79
2024/01/05 07:35:07;;;;;;;5.77;3.37;;;-0.90;99.90;;;;;;10415993;28;20206;-80
2024/01/05 07:40:28;;;;;;;7.07;4.63;;;-0.80;99.90;;;;;;10421206;28;20424;-79
2024/01/05 07:45:50;;;;;;;8.90;6.23;;;-0.80;99.90;;;;;;10437089;28;20428;-79
2024/01/05 07:51:11;;;;;;;10.70;6.80;;;-0.80;99.90;;;;;;10419401;28;20232;-80
2024/01/05 07:56:37;;;;;;;7.03;4.27;;;-0.80;99.90;;;;;;10435270;28;20253;-78
2024/01/05 08:01:58;;;;;;;6.57;4.40;;;-0.70;99.90;;;;;;10435676;28;20351;-78
2024/01/05 08:07:19;;;;;;;6.80;4.00;;;-0.70;99.90;;;;;;10407384;28;20246;-79
2024/01/05 08:12:41;;;;;;;7.47;4.07;;;-0.80;99.90;;;;;;10398312;28;20198;-80
2024/01/05 08:18:03;;;;;;;6.03;4.10;;;-0.80;99.90;;;;;;10414579;28;20312;-79
2024/01/05 08:23:25;;;;;;;6.83;3.63;;;-0.70;99.90;;;;;;10415819;28;20229;-79
2024/01/05 08:28:46;;;;;;;10.47;5.10;;;-0.70;99.90;;;;;;10430277;28;20282;-79
2024/01/05 08:34:08;;;;;;;13.17;7.77;;;-0.70;99.90;;;;;;10416554;28;20210;-82
2024/01/05 08:39:29;;;;;;;15.17;8.60;;;-0.60;99.90;;;;;;10417484;28;20456;-79
2024/01/05 08:44:51;;;;;;;12.93;6.63;;;-0.50;99.90;;;;;;10423378;28;20202;-79
2024/01/05 08:50:12;;;;;;;13.97;7.60;;;-0.50;74.10;;;;;;10423602;28;20534;-79
2024/01/05 08:55:33;;;;;;;13.20;7.73;;;-0.40;99.90;;;;;;10437517;28;20286;-78
2024/01/05 09:00:54;;;;;;;24.37;11.73;;;-0.30;1.00;;;;;;10436211;28;20206;-78
2024/01/05 09:06:16;;;;;;;42.10;18.80;;;-0.20;1.00;;;;;;10396388;28;20208;-77
2024/01/05 09:11:39;;;;;;;35.90;13.73;;;-0.10;1.00;;;;;;10429903;28;20214;-80
2024/01/05 09:17:00;;;;;;;15.00;7.23;;;0.10;1.00;;;;;;10421501;28;20210;-81
2024/01/05 09:22:22;;;;;;;5.33;3.60;;;0.10;1.00;;;;;;10435849;28;20218;-81
2024/01/05 09:27:43;;;;;;;11.20;5.50;;;0.10;1.00;;;;;;10422757;28;20257;-78
2024/01/05 09:33:04;;;;;;;18.57;7.20;;;0.00;1.00;;;;;;10398395;28;20514;-78
2024/01/05 09:38:26;;;;;;;10.37;6.03;;;0.10;1.00;;;;;;10403235;28;20226;-78
2024/01/05 09:43:51;;;;;;;20.90;9.23;;;0.00;1.00;;;;;;10435122;28;20203;-78
2024/01/05 09:49:16;;;;;;;11.03;6.83;;;-0.20;1.00;;;;;;10430271;28;20227;-79
2024/01/05 09:54:37;;;;;;;6.03;4.10;;;-0.30;1.00;;;;;;10425335;28;20275;-80
2024/01/05 10:00:03;;;;;;;6.50;4.53;;;-0.30;1.00;;;;;;10420593;28;20222;-79
2024/01/05 10:05:31;;;;;;;12.10;6.77;;;-0.30;1.00;;;;;;10406427;28;20211;-79
2024/01/05 10:10:58;;;;;;;5.03;3.33;;;-0.20;1.00;;;;;;10430654;28;20543;-77
2024/01/05 10:16:23;;;;;;;3.70;2.40;;;-0.10;1.00;;;;;;10419649;28;20226;-79
2024/01/05 10:21:48;;;;;;;7.47;3.77;;;0.00;1.00;;;;;;10419749;28;20199;-79
2024/01/05 10:27:11;;;;;;;5.43;3.30;;;0.10;1.00;;;;;;10444574;28;20382;-84
2024/01/05 10:32:32;;;;;;;6.43;3.40;;;0.20;1.00;;;;;;10438887;28;20208;-80
2024/01/05 10:38:06;;;;;;;9.27;3.67;;;0.30;1.00;;;;;;10436553;28;20214;-80
2024/01/05 10:43:27;;;;;;;6.73;3.83;;;0.30;1.00;;;;;;10422588;28;20228;-80
2024/01/05 10:48:50;;;;;;;7.40;3.70;;;0.30;1.00;;;;;;10452623;28;20227;-80
2024/01/05 10:54:11;;;;;;;4.57;2.73;;;0.20;1.00;;;;;;10439403;28;20234;-82
2024/01/05 10:59:33;;;;;;;6.00;3.40;;;0.40;1.00;;;;;;10433917;28;20273;-81
2024/01/05 11:05:08;;;;;;;5.53;3.30;;;0.50;1.00;;;;;;10450609;28;20200;-80
2024/01/05 11:10:52;;;;;;;5.87;2.87;;;0.50;1.00;;;;;;10461288;28;20520;-82
2024/01/05 11:16:45;;;;;;;3.77;2.23;;;0.50;1.00;;;;;;10435506;28;20417;-80
2024/01/05 11:22:10;;;;;;;5.00;2.80;;;0.70;1.00;;;;;;10440882;28;20210;-81
2024/01/05 11:27:33;;;;;;;5.20;2.73;;;1.00;1.00;;;;;;10419683;28;20518;-79
2024/01/05 11:32:55;;;;;;;5.47;2.70;;;1.10;1.00;;;;;;10414586;28;20255;-80
2024/01/05 11:38:25;;;;;;;6.60;3.47;;;1.60;1.00;;;;;;10427652;28;20205;-82
2024/01/05 11:43:46;;;;;;;14.50;6.67;;;2.30;1.00;;;;;;10419666;28;20212;-81
2024/01/05 11:49:07;;;;;;;23.40;9.23;;;3.00;1.00;;;;;;10431978;28;20416;-82
2024/01/05 11:54:29;;;;;;;9.97;4.20;;;2.90;1.00;;;;;;10451109;28;20233;-87
2024/01/05 11:59:56;;;;;;;6.07;2.97;;;3.30;1.00;;;;;;10455102;28;20216;-81
2024/01/05 12:05:18;;;;;;;8.23;4.37;;;3.40;1.00;;;;;;10419696;28;20201;-87
2024/01/05 12:10:40;;;;;;;12.20;6.03;;;2.90;1.00;;;;;;10457214;28;20224;-80
2024/01/05 12:16:03;;;;;;;17.43;8.90;;;2.20;1.00;;;;;;10444677;28;20193;-79
2024/01/05 12:21:25;;;;;;;28.73;15.07;;;1.60;1.00;;;;;;10454803;28;20222;-82
2024/01/05 12:26:46;;;;;;;25.90;12.83;;;1.10;1.00;;;;;;10432989;28;20207;-78
2024/01/05 12:32:07;;;;;;;21.50;10.43;;;0.80;1.00;;;;;;10438175;28;20554;-82
2024/01/05 12:37:29;;;;;;;18.73;10.67;;;0.60;1.00;;;;;;10394131;28;20553;-80
2024/01/05 12:42:52;;;;;;;24.00;12.63;;;0.40;1.00;;;;;;10449386;28;20212;-79
2024/01/05 12:48:15;;;;;;;39.60;18.30;;;0.50;1.00;;;;;;10438029;28;20296;-79
2024/01/05 12:53:36;;;;;;;26.13;14.53;;;0.50;1.00;;;;;;10423077;28;20234;-80
2024/01/05 12:58:57;;;;;;;28.67;12.50;;;0.20;1.00;;;;;;10431715;28;20202;-80
2024/01/05 13:04:34;;;;;;;29.23;13.33;;;0.10;1.00;;;;;;10434054;28;20222;-79
2024/01/05 13:09:55;;;;;;;28.97;13.60;;;0.20;1.00;;;;;;10429414;28;20447;-79
2024/01/05 13:15:16;;;;;;;26.23;11.97;;;0.20;1.00;;;;;;10416492;28;20200;-79
2024/01/05 13:20:38;;;;;;;24.47;11.33;;;0.20;1.00;;;;;;10436369;28;20207;-80
2024/01/05 13:26:01;;;;;;;30.07;16.40;;;0.10;1.00;;;;;;10440181;28;20280;-78
2024/01/05 13:31:23;;;;;;;32.33;17.60;;;-0.20;1.00;;;;;;10430251;28;20784;-80
2024/01/05 13:36:44;;;;;;;39.47;20.27;;;-0.30;1.00;;;;;;10452510;28;20305;-80
2024/01/05 13:42:06;;;;;;;43.10;20.07;;;-0.20;1.00;;;;;;10421867;28;20399;-80
2024/01/05 13:47:27;;;;;;;40.17;18.17;;;-0.20;1.00;;;;;;10447121;28;20455;-79
2024/01/05 13:52:48;;;;;;;38.00;19.10;;;-0.20;1.00;;;;;;10447884;28;20212;-79
2024/01/05 13:58:10;;;;;;;34.93;19.87;;;-0.20;1.00;;;;;;10434737;28;20202;-79
2024/01/05 14:03:31;;;;;;;47.40;25.60;;;-0.20;1.00;;;;;;10446118;28;20515;-81
2024/01/05 14:08:53;;;;;;;44.97;22.10;;;-0.40;1.00;;;;;;10441526;28;20229;-78
2024/01/05 14:14:15;;;;;;;64.73;31.23;;;-0.60;1.00;;;;;;10457242;28;20244;-80
2024/01/05 14:19:40;;;;;;;180.67;66.03;;;-0.60;1.00;;;;;;10449637;28;20205;-79
2024/01/05 14:25:02;;;;;;;223.37;79.97;;;-0.80;1.00;;;;;;10433063;28;20198;-79
2024/01/05 14:30:24;;;;;;;209.83;76.93;;;-0.90;1.00;;;;;;10446298;28;20241;-79
2024/01/05 14:35:46;;;;;;;167.67;62.57;;;-1.00;1.00;;;;;;10424930;28;20203;-78
2024/01/05 14:41:07;;;;;;;124.77;52.83;;;-1.10;1.00;;;;;;10444449;28;20298;-80
2024/01/05 14:46:29;;;;;;;116.70;49.53;;;;;;;;;;10453303;28;20252;-79
2024/01/05 14:51:50;;;;;;;125.47;51.40;;;-1.40;1.00;;;;;;10445039;28;20565;-80
2024/01/05 14:57:12;;;;;;;153.80;64.40;;;-1.40;1.00;;;;;;10420105;28;20248;-79
2024/01/05 15:02:33;;;;;;;170.00;74.30;;;;;;;;;;10407215;28;20235;-80
2024/01/05 15:07:55;;;;;;;169.10;77.40;;;-1.50;1.00;;;;;;10463914;28;20222;-80
2024/01/05 15:13:16;;;;;;;175.57;79.83;;;-1.60;1.00;;;;;;10433556;28;20230;-80
2024/01/05 15:18:37;;;;;;;159.00;79.60;;;;;;;;;;10438777;28;20188;-80
2024/01/05 15:23:59;;;;;;;146.70;74.37;;;-1.80;1.00;;;;;;10455535;28;20204;-79
2024/01/05 15:29:21;;;;;;;138.77;71.40;;;-1.80;19.40;;;;;;10407845;28;20396;-80
2024/01/05 15:34:45;;;;;;;131.00;72.40;;;-1.90;1.00;;;;;;10436418;28;20219;-80
2024/01/05 15:40:07;;;;;;;132.10;69.50;;;-2.00;1.00;;;;;;10430367;28;20204;-81
2024/01/05 15:45:28;;;;;;;139.27;74.43;;;-2.10;1.00;;;;;;10421133;28;20208;-81
2024/01/05 15:50:49;;;;;;;204.67;93.37;;;-2.20;1.00;;;;;;10446237;28;20233;-80
2024/01/05 15:56:11;;;;;;;224.23;98.53;;;-2.30;37.70;;;;;;10388611;28;20250;-83
2024/01/05 16:01:32;;;;;;;216.87;98.10;;;-2.30;1.00;;;;;;10419672;28;20205;-87
2024/01/05 16:06:54;;;;;;;444.10;154.27;;;-2.30;1.00;;;;;;10434245;28;20210;-82
2024/01/05 16:12:17;;;;;;;564.90;206.17;;;-2.40;1.00;;;;;;10435806;28;20224;-79
2024/01/05 16:17:38;;;;;;;564.70;211.43;;;-2.50;9.70;;;;;;10407097;28;20225;-82
2024/01/05 16:22:59;;;;;;;658.57;286.10;;;-2.60;99.90;;;;;;10394306;28;20206;-82
2024/01/05 16:28:20;;;;;;;470.40;192.50;;;-2.60;10.10;;;;;;10380337;28;20217;-82
2024/01/05 16:33:42;;;;;;;295.47;151.00;;;-2.70;1.00;;;;;;10391144;28;20208;-82
2024/01/05 16:39:03;;;;;;;252.10;126.43;;;-2.80;1.00;;;;;;10419115;28;20246;-81
2024/01/05 16:44:24;;;;;;;258.47;126.73;;;-3.00;1.00;;;;;;10419334;28;20206;-82
2024/01/05 16:49:46;;;;;;;289.77;144.47;;;-3.10;1.00;;;;;;10426887;28;20216;-82
2024/01/05 16:55:07;;;;;;;292.70;146.10;;;-3.00;30.10;;;;;;10376077;28;20239;-82
2024/01/05 17:00:28;;;;;;;230.70;109.73;;;-2.90;35.60;;;;;;10398202;28;20201;-82
2024/01/05 17:05:49;;;;;;;329.03;141.27;;;-2.90;1.00;;;;;;10403762;28;20197;-81
2024/01/05 17:11:11;;;;;;;652.60;296.87;;;-2.90;1.00;;;;;;10387405;28;20410;-79
2024/01/05 17:16:32;;;;;;;827.97;355.13;;;-2.70;1.00;;;;;;10387122;28;20444;-82
2024/01/05 17:21:54;;;;;;;797.73;323.83;;;-2.80;1.00;;;;;;10413167;28;20205;-82
2024/01/05 17:27:16;;;;;;;620.20;230.53;;;-3.00;1.00;;;;;;10413603;28;20219;-82
2024/01/05 17:32:37;;;;;;;553.30;188.10;;;-3.00;1.00;;;;;;10440962;28;20225;-83
2024/01/05 17:37:58;;;;;;;450.03;156.00;;;-3.00;1.00;;;;;;10426758;28;20268;-82
2024/01/05 17:43:19;;;;;;;372.57;132.50;;;-3.00;1.00;;;;;;10413185;28;20222;-82
2024/01/05 17:48:41;;;;;;;297.10;115.23;;;-3.00;1.00;;;;;;10424357;28;20581;-82
2024/01/05 17:54:03;;;;;;;312.33;117.03;;;-2.90;1.00;;;;;;10430126;28;20311;-80
2024/01/05 17:59:25;;;;;;;252.63;102.73;;;-3.00;1.00;;;;;;10426756;28;20196;-80
2024/01/05 18:04:47;;;;;;;238.50;103.03;;;-3.00;1.00;;;;;;10426034;28;20219;-79
2024/01/05 18:10:09;;;;;;;228.47;99.50;;;-2.90;1.00;;;;;;10425840;28;20280;-79
2024/01/05 18:15:30;;;;;;;193.40;84.20;;;-2.90;1.00;;;;;;10424989;28;20394;-79
2024/01/05 18:20:52;;;;;;;200.27;85.13;;;-3.10;1.00;;;;;;10408460;28;20206;-79
2024/01/05 18:26:22;;;;;;;212.80;84.87;;;-3.30;1.00;;;;;;10398251;28;20192;-80
2024/01/05 18:31:43;;;;;;;163.53;67.37;;;-3.40;1.00;;;;;;10397780;28;20292;-79
2024/01/05 18:37:04;;;;;;;112.63;49.87;;;-3.40;1.00;;;;;;10383833;28;20200;-79
2024/01/05 18:42:25;;;;;;;106.83;48.83;;;-3.30;1.00;;;;;;10438255;28;20254;-79
2024/01/05 18:47:46;;;;;;;148.33;62.93;;;-3.10;1.00;;;;;;10404734;28;20207;-79
2024/01/05 18:53:08;;;;;;;160.93;69.43;;;-3.00;1.00;;;;;;10417675;28;20231;-80
2024/01/05 18:58:29;;;;;;;163.80;68.60;;;-3.10;1.00;;;;;;10437934;28;20201;-79
2024/01/05 19:03:51;;;;;;;125.93;52.00;;;-3.20;1.00;;;;;;10437510;28;20189;-80
2024/01/05 19:09:12;;;;;;;177.70;68.90;;;-3.10;1.00;;;;;;10423219;28;20470;-79
2024/01/05 19:14:33;;;;;;;167.83;71.93;;;-3.00;1.00;;;;;;10423533;28;20277;-79
2024/01/05 19:19:55;;;;;;;147.70;68.80;;;-3.00;1.00;;;;;;10401082;28;20562;-79
2024/01/05 19:25:16;;;;;;;89.23;46.47;;;-2.90;1.00;;;;;;10395281;28;20204;-79
2024/01/05 19:30:37;;;;;;;67.13;35.07;;;-2.90;1.00;;;;;;10395266;28;20228;-79
2024/01/05 19:36:00;;;;;;;82.83;35.17;;;-2.80;1.00;;;;;;10395616;28;20193;-78
2024/01/05 19:41:22;;;;;;;92.70;39.53;;;-2.90;1.00;;;;;;10428245;28;20196;-79
2024/01/05 19:46:44;;;;;;;101.73;41.17;;;-3.20;1.00;;;;;;10436169;28;20201;-79
2024/01/05 19:52:06;;;;;;;85.73;38.70;;;-3.30;1.00;;;;;;10406400;28;20230;-78
2024/01/05 19:57:27;;;;;;;74.43;34.10;;;-3.30;1.00;;;;;;10421905;28;20472;-79
2024/01/05 20:02:48;;;;;;;82.60;38.47;;;-3.30;1.00;;;;;;10421080;28;20554;-79
2024/01/05 20:08:10;;;;;;;76.10;35.80;;;-3.10;1.00;;;;;;10421556;28;20421;-79
2024/01/05 20:13:31;;;;;;;79.53;34.80;;;-2.90;1.00;;;;;;10436143;28;20200;-79
2024/01/05 20:18:52;;;;;;;99.87;43.10;;;-2.70;1.00;;;;;;10419883;28;20280;-79
2024/01/05 20:24:13;;;;;;;90.77;38.47;;;-2.50;1.00;;;;;;10396871;28;20248;-79
2024/01/05 20:29:37;;;;;;;95.10;37.33;;;-2.40;1.00;;;;;;10366391;28;20306;-79
2024/01/05 20:34:59;;;;;;;76.13;37.73;;;-2.30;1.00;;;;;;10367650;28;20193;-79
2024/01/05 20:40:21;;;;;;;80.13;37.90;;;-2.20;1.00;;;;;;10413367;28;20476;-78
2024/01/05 20:45:43;;;;;;;91.77;41.47;;;-2.20;1.00;;;;;;10411402;28;20233;-79
2024/01/05 20:51:05;;;;;;;119.57;57.10;;;-2.20;1.00;;;;;;10420133;28;20267;-79
2024/01/05 20:56:26;;;;;;;136.50;61.67;;;-2.30;1.00;;;;;;10387633;28;20285;-79
2024/01/05 21:01:47;;;;;;;123.73;56.23;;;-2.30;1.00;;;;;;10410386;28;20209;-79
2024/01/05 21:07:09;;;;;;;108.00;45.43;;;-2.10;1.00;;;;;;10442193;28;20203;-79
2024/01/05 21:12:31;;;;;;;136.30;53.07;;;-2.20;1.00;;;;;;10427634;28;20236;-78
2024/01/05 21:17:52;;;;;;;101.93;40.77;;;-2.10;1.00;;;;;;10427639;28;20204;-79
2024/01/05 21:23:13;;;;;;;81.77;34.27;;;-2.10;1.00;;;;;;10427697;28;20203;-79
2024/01/05 21:28:34;;;;;;;99.70;44.37;;;-2.10;1.00;;;;;;10426967;28;20426;-79
2024/01/05 21:33:55;;;;;;;113.20;50.80;;;-2.20;1.00;;;;;;10419476;28;20209;-79
2024/01/05 21:39:17;;;;;;;123.50;54.40;;;-2.30;1.00;;;;;;10415984;28;20209;-79
2024/01/05 21:44:38;;;;;;;117.83;54.00;;;-2.30;1.00;;;;;;10412909;28;20226;-79
2024/01/05 21:50:00;;;;;;;125.03;54.83;;;-2.30;1.00;;;;;;10413061;28;20225;-79
2024/01/05 21:55:21;;;;;;;147.00;60.40;;;-2.30;1.00;;;;;;10424110;28;20266;-79
2024/01/05 22:00:43;;;;;;;170.63;63.20;;;-2.20;1.00;;;;;;10412534;28;20492;-79
2024/01/05 22:06:05;;;;;;;151.67;60.33;;;-2.10;1.00;;;;;;10385423;28;20251;-79
2024/01/05 22:11:26;;;;;;;137.87;54.57;;;-2.10;1.00;;;;;;10398643;28;20515;-79
2024/01/05 22:16:52;;;;;;;150.47;67.00;;;-2.10;1.00;;;;;;10398666;28;20241;-79
2024/01/05 22:22:13;;;;;;;153.37;65.03;;;-2.10;1.00;;;;;;10384777;28;20200;-82
2024/01/05 22:27:34;;;;;;;170.87;66.57;;;-2.10;1.00;;;;;;10397933;28;20510;-81
2024/01/05 22:32:56;;;;;;;156.80;62.60;;;-2.20;1.00;;;;;;10401404;28;20603;-82
2024/01/05 22:38:17;;;;;;;137.73;54.07;;;-2.20;1.00;;;;;;10405728;28;20244;-82
2024/01/05 22:43:39;;;;;;;145.80;56.73;;;-2.10;1.00;;;;;;10438879;28;20188;-82
2024/01/05 22:49:01;;;;;;;181.33;69.87;;;-2.30;1.00;;;;;;10437612;28;20217;-79
2024/01/05 22:54:22;;;;;;;129.67;50.83;;;-2.20;1.00;;;;;;10409535;28;20320;-80
2024/01/05 22:59:43;;;;;;;137.70;44.77;;;-2.20;1.00;;;;;;10423608;28;20192;-79
2024/01/05 23:05:05;;;;;;;276.53;91.03;;;-2.50;1.00;;;;;;10405343;28;20207;-80
2024/01/05 23:10:26;;;;;;;295.77;94.73;;;-2.50;1.00;;;;;;10396173;28;20507;-81
2024/01/05 23:15:47;;;;;;;213.40;62.17;;;-2.50;1.00;;;;;;10397268;28;20217;-82
2024/01/05 23:21:11;;;;;;;121.27;39.70;;;-2.50;1.00;;;;;;10368729;28;20205;-79
2024/01/05 23:26:32;;;;;;;96.53;32.57;;;-2.50;1.00;;;;;;10381879;28;20213;-79
2024/01/05 23:31:53;;;;;;;86.37;35.03;;;-2.40;1.00;;;;;;10385094;28;20234;-80
2024/01/05 23:37:15;;;;;;;168.50;65.10;;;-2.30;1.00;;;;;;10395147;28;20225;-79
2024/01/05 23:42:37;;;;;;;147.53;50.10;;;-2.50;1.00;;;;;;10411901;28;20501;-79
2024/01/05 23:47:58;;;;;;;134.00;36.87;;;-2.60;1.00;;;;;;10381255;28;20263;-79
2024/01/05 23:53:19;;;;;;;617.37;141.47;;;-2.60;1.00;;;;;;10417224;28;20258;-82
2024/01/05 23:58:41;;;;;;;604.27;134.53;;;-2.50;1.00;;;;;;10435855;28;20275;-83
